Time;durP1;ratioP1;P1;durP2;ratioP2;P2;SDS_P1;SDS_P2;PMS_P1;PMS_P2;Temp;Humidity;BMP_temperature;BMP_pressure;BME280_temperature;BME280_humidity;BME280_pressure;Samples;Min_cycle;Max_cycle;Signal;HPM_P1;HPM_P2
2020/12/16 00:00:11;;;;;;;20.50;13.85;;;;;;;1.71;77.06;101854.59;1667972;84;20972;-75
2020/12/16 00:02:41;;;;;;;23.12;15.13;;;;;;;1.75;76.98;101858.03;1691079;83;21071;-76
2020/12/16 00:05:10;;;;;;;22.80;13.98;;;;;;;1.77;76.78;101866.21;1667874;84;20996;-75
2020/12/16 00:07:38;;;;;;;20.52;12.98;;;;;;;1.76;76.63;101867.53;1672084;84;21184;-74
2020/12/16 00:10:10;;;;;;;20.52;13.35;;;;;;;1.73;76.66;101864.50;1712393;79;21043;-76
2020/12/16 00:12:40;;;;;;;18.30;11.88;;;;;;;1.71;76.78;101864.08;1661922;85;20991;-76
2020/12/16 00:15:08;;;;;;;24.10;14.47;;;;;;;1.70;76.91;101870.13;1684869;84;20987;-75
2020/12/16 00:17:37;;;;;;;21.68;14.30;;;;;;;1.71;77.02;101867.52;1694356;83;21409;-77
2020/12/16 00:20:06;;;;;;;21.85;14.15;;;;;;;1.73;77.05;101870.11;1662320;85;22439;-76
2020/12/16 00:22:39;;;;;;;21.85;14.45;;;;;;;1.71;76.96;101875.27;1661976;85;21025;-76
2020/12/16 00:25:08;;;;;;;23.23;14.40;;;;;;;1.64;76.96;101874.43;1698621;83;20934;-76
2020/12/16 00:27:37;;;;;;;23.55;14.10;;;;;;;1.59;77.12;101882.64;1662973;85;21120;-76
2020/12/16 00:30:06;;;;;;;24.00;15.90;;;;;;;1.53;77.34;101874.04;1694719;83;21053;-75
2020/12/16 00:32:38;;;;;;;23.10;14.30;;;;;;;1.48;77.60;101864.16;1661979;85;21061;-76
2020/12/16 00:35:07;;;;;;;22.27;14.18;;;;;;;1.47;77.71;101867.18;1694226;83;20974;-76
2020/12/16 00:37:39;;;;;;;24.80;15.00;;;;;;;1.45;77.78;101858.13;1661705;84;21003;-76
2020/12/16 00:40:09;;;;;;;24.52;14.98;;;;;;;1.41;77.82;101855.11;1661751;85;20986;-76
2020/12/16 00:42:38;;;;;;;23.92;16.23;;;;;;;1.41;77.94;101854.27;1694257;83;21077;-77
2020/12/16 00:45:07;;;;;;;24.67;14.53;;;;;;;1.39;78.05;101853.40;1661709;85;21002;-77
2020/12/16 00:47:36;;;;;;;23.12;13.88;;;;;;;1.37;78.11;101853.84;1684729;83;21011;-77
2020/12/16 00:50:05;;;;;;;26.80;15.45;;;;;;;1.36;78.19;101852.98;1660470;85;21145;-77
2020/12/16 00:52:35;;;;;;;25.90;14.15;;;;;;;1.38;78.24;101854.25;1658844;85;20978;-77
2020/12/16 00:55:05;;;;;;;22.13;14.30;;;;;;;1.39;78.21;101860.72;1694349;83;21017;-78
2020/12/16 00:57:35;;;;;;;25.00;14.58;;;;;;;1.42;78.09;101858.55;1661660;85;21170;-76
2020/12/16 01:00:08;;;;;;;21.02;12.73;;;;;;;1.42;78.00;101861.14;1689378;85;21488;-76
2020/12/16 01:02:42;;;;;;;24.45;14.80;;;;;;;1.42;78.07;101866.30;1694365;83;21546;-77
2020/12/16 01:05:13;;;;;;;24.07;14.53;;;;;;;1.41;78.11;101869.77;1689426;83;21078;-76
2020/12/16 01:07:43;;;;;;;22.70;14.60;;;;;;;1.42;78.08;101856.85;1651154;85;21440;-78
2020/12/16 01:10:14;;;;;;;25.08;13.95;;;;;;;1.43;78.02;101856.41;1638746;85;21049;-78
2020/12/16 01:12:44;;;;;;;23.98;14.23;;;;;;;1.41;77.97;101856.41;1686043;83;23552;-76
2020/12/16 01:15:15;;;;;;;21.87;13.03;;;;;;;1.42;77.92;101859.44;1676320;83;20939;-75
2020/12/16 01:17:43;;;;;;;22.22;13.40;;;;;;;1.43;77.97;101864.17;1700053;83;20978;-74
2020/12/16 01:20:12;;;;;;;21.07;13.40;;;;;;;1.41;77.98;101862.02;1699898;83;20931;-76
2020/12/16 01:22:42;;;;;;;21.87;13.65;;;;;;;1.42;78.02;101860.73;1699902;83;21249;-75
2020/12/16 01:25:11;;;;;;;24.37;14.93;;;;;;;1.44;77.90;101869.31;1722336;82;20954;-76
2020/12/16 01:27:39;;;;;;;22.37;13.68;;;;;;;1.46;77.82;101866.73;1722316;82;21380;-75
2020/12/16 01:30:09;;;;;;;21.75;13.30;;;;;;;1.51;77.64;101864.14;1699629;83;20971;-75
2020/12/16 01:32:38;;;;;;;20.00;12.07;;;;;;;1.53;77.56;101869.72;1699869;83;21030;-75
2020/12/16 01:35:09;;;;;;;18.55;11.57;;;;;;;1.57;77.46;101859.81;1699764;83;21130;-76
2020/12/16 01:37:39;;;;;;;23.42;14.03;;;;;;;1.56;77.35;101865.01;1699807;83;21041;-75
2020/12/16 01:40:08;;;;;;;23.30;13.50;;;;;;;1.52;77.19;101867.17;1699832;83;21070;-75
2020/12/16 01:42:38;;;;;;;19.60;12.47;;;;;;;1.47;77.20;101866.30;1699454;83;21082;-74
2020/12/16 01:45:16;;;;;;;18.23;12.05;;;;;;;1.45;77.27;101863.30;1699716;83;21041;-74
2020/12/16 01:47:44;;;;;;;19.25;12.80;;;;;;;1.44;77.22;101862.00;1699801;83;21159;-75
2020/12/16 01:50:14;;;;;;;18.77;11.68;;;;;;;1.43;77.23;101859.00;1724425;83;21014;-75
2020/12/16 01:52:43;;;;;;;19.73;12.47;;;;;;;1.42;77.36;101862.02;1699874;83;20992;-75
2020/12/16 01:55:12;;;;;;;18.35;11.12;;;;;;;1.44;77.29;101853.80;1699752;83;21063;-75
2020/12/16 01:57:46;;;;;;;18.42;11.95;;;;;;;1.45;77.19;101856.84;1698261;83;20959;-75
2020/12/16 02:00:16;;;;;;;19.10;11.85;;;;;;;1.47;77.23;101863.70;1699112;83;21217;-75
2020/12/16 02:02:52;;;;;;;19.67;12.23;;;;;;;1.52;77.13;101863.29;1699665;83;21085;-74
2020/12/16 02:05:28;;;;;;;19.80;12.13;;;;;;;1.53;77.11;101867.58;1699723;83;21075;-74
2020/12/16 02:07:58;;;;;;;21.30;12.37;;;;;;;1.52;77.11;101871.89;1699293;83;20998;-75
2020/12/16 02:10:27;;;;;;;18.77;12.23;;;;;;;1.51;77.07;101867.58;1699668;83;21042;-74
2020/12/16 02:12:55;;;;;;;17.62;11.95;;;;;;;1.49;77.08;101869.33;1699508;83;21189;-74
2020/12/16 02:15:23;;;;;;;19.70;11.93;;;;;;;1.48;77.09;101870.18;1693089;79;20987;-77
2020/12/16 02:17:51;;;;;;;16.02;11.12;;;;;;;1.52;77.06;101870.60;1596867;89;21070;-76
2020/12/16 02:20:20;;;;;;;18.17;11.68;;;;;;;1.54;77.06;101868.88;1593454;89;21111;-78
2020/12/16 02:22:50;;;;;;;19.98;12.40;;;;;;;1.50;77.12;101869.74;1614646;88;21452;-78
2020/12/16 02:25:20;;;;;;;20.92;13.43;;;;;;;1.48;77.15;101874.49;1586709;89;21195;-79
2020/12/16 02:27:50;;;;;;;20.72;11.80;;;;;;;1.44;77.28;101875.77;1584997;90;21158;-76
2020/12/16 02:30:20;;;;;;;20.50;12.13;;;;;;;1.45;77.28;101879.24;1614386;88;21106;-76
2020/12/16 02:33:07;;;;;;;15.60;11.03;;;;;;;1.50;77.23;101874.06;1593082;89;21074;-77
2020/12/16 02:35:37;;;;;;;19.77;12.05;;;;;;;1.45;77.23;101880.53;1613766;88;20951;-75
2020/12/16 02:38:07;;;;;;;17.87;12.07;;;;;;;1.40;77.42;101880.95;1585806;89;21220;-75
2020/12/16 02:40:36;;;;;;;18.12;12.05;;;;;;;1.39;77.52;101892.17;1566108;91;21035;-76
2020/12/16 02:43:05;;;;;;;17.17;12.23;;;;;;;1.38;77.59;101898.18;1557638;91;21382;-77
2020/12/16 02:45:34;;;;;;;16.70;11.20;;;;;;;1.39;77.62;101900.77;1557652;91;21107;-77
2020/12/16 02:48:06;;;;;;;19.30;12.33;;;;;;;1.43;77.55;101899.06;1550916;91;21020;-76
2020/12/16 02:50:37;;;;;;;17.65;11.83;;;;;;;1.45;77.54;101898.63;1593542;89;21995;-76
2020/12/16 02:53:05;;;;;;;17.20;11.80;;;;;;;1.45;77.60;101903.36;1565892;91;21031;-76
2020/12/16 02:55:38;;;;;;;19.82;11.88;;;;;;;1.47;77.61;101908.94;1582502;90;21020;-77
2020/12/16 02:58:06;;;;;;;19.55;12.03;;;;;;;1.48;77.49;101907.66;1593714;89;21011;-77
2020/12/16 03:00:34;;;;;;;18.23;11.88;;;;;;;1.48;77.44;101917.14;1565559;91;21009;-77
2020/12/16 03:03:04;;;;;;;17.50;11.75;;;;;;;1.50;77.34;101916.71;1550482;89;21692;-75
2020/12/16 03:05:34;;;;;;;16.27;11.90;;;;;;;1.48;77.30;101912.83;1613111;88;21075;-75
2020/12/16 03:08:07;;;;;;;18.40;11.95;;;;;;;1.46;77.37;101921.02;1566122;91;21075;-76
2020/12/16 03:10:35;;;;;;;18.90;12.25;;;;;;;1.42;77.49;101925.75;1593557;87;20995;-76
2020/12/16 03:13:04;;;;;;;16.42;11.25;;;;;;;1.40;77.57;101916.73;1593726;89;21564;-77
2020/12/16 03:15:33;;;;;;;20.65;11.73;;;;;;;1.39;77.51;101921.89;1566066;91;21079;-77
2020/12/16 03:18:01;;;;;;;19.40;11.95;;;;;;;1.36;77.50;101931.80;1612808;86;21066;-76
2020/12/16 03:20:30;;;;;;;14.40;10.65;;;;;;;1.35;77.58;101927.92;1739009;80;20942;-74
2020/12/16 03:22:58;;;;;;;16.30;9.75;;;;;;;1.36;77.60;101938.27;1766107;80;20934;-74
2020/12/16 03:25:39;;;;;;;15.53;9.98;;;;;;;1.33;77.62;101934.37;1761483;80;20914;-75
2020/12/16 03:28:09;;;;;;;15.48;9.93;;;;;;;1.33;77.48;101938.69;1739178;80;21042;-74
2020/12/16 03:30:42;;;;;;;18.48;12.18;;;;;;;1.35;77.51;101942.13;1741173;80;21172;-74
2020/12/16 03:33:12;;;;;;;16.45;11.05;;;;;;;1.36;77.37;101937.41;1737267;80;21310;-74
2020/12/16 03:35:57;;;;;;;17.07;9.55;;;;;;;1.35;77.16;101936.97;1761627;80;20914;-73
2020/12/16 03:38:25;;;;;;;11.65;8.05;;;;;;;1.32;77.15;101939.56;1763657;80;21022;-73
2020/12/16 03:40:57;;;;;;;14.63;9.60;;;;;;;1.31;76.87;101935.23;1763744;80;21959;-74
2020/12/16 03:43:26;;;;;;;13.70;8.65;;;;;;;1.27;76.71;101934.39;1763587;80;21133;-73
2020/12/16 03:45:55;;;;;;;15.53;9.40;;;;;;;1.26;76.62;101931.36;1763568;80;20991;-74
2020/12/16 03:48:24;;;;;;;13.70;7.97;;;;;;;1.28;76.59;101939.13;1792814;80;21035;-75
2020/12/16 03:50:52;;;;;;;13.50;8.23;;;;;;;1.29;76.48;101939.14;1763592;80;21017;-74
2020/12/16 03:53:21;;;;;;;13.00;8.28;;;;;;;1.29;76.21;101945.59;1738428;80;21836;-76
2020/12/16 03:55:53;;;;;;;13.95;8.40;;;;;;;1.29;76.18;101946.00;1761015;80;21049;-74
2020/12/16 03:58:25;;;;;;;15.03;8.73;;;;;;;1.31;75.94;101943.88;1722953;80;20952;-74
2020/12/16 04:01:08;;;;;;;12.00;8.50;;;;;;;1.31;75.73;101942.58;1761713;80;21096;-75
2020/12/16 04:03:36;;;;;;;11.28;8.03;;;;;;;1.34;75.60;101946.45;1764008;80;21523;-76
2020/12/16 04:06:07;;;;;;;11.40;8.33;;;;;;;1.37;75.31;101941.27;1762249;80;21217;-73
2020/12/16 04:08:39;;;;;;;12.60;7.42;;;;;;;1.37;75.19;101951.60;1738959;80;20986;-75
2020/12/16 04:11:20;;;;;;;10.60;7.97;;;;;;;1.33;75.04;101946.44;1761652;80;20950;-75
2020/12/16 04:13:50;;;;;;;12.30;7.25;;;;;;;1.31;75.10;101945.58;1763007;80;21507;-74
2020/12/16 04:16:20;;;;;;;10.82;7.20;;;;;;;1.31;75.14;101956.80;1763962;80;21037;-73
2020/12/16 04:18:50;;;;;;;12.75;6.33;;;;;;;1.33;75.00;101958.92;1763384;80;21063;-75
2020/12/16 04:21:20;;;;;;;11.50;7.92;;;;;;;1.36;75.03;101962.81;1756054;80;20975;-74
2020/12/16 04:23:48;;;;;;;10.68;7.72;;;;;;;1.36;75.05;101958.09;1692000;79;20985;-75
2020/12/16 04:26:30;;;;;;;11.38;8.35;;;;;;;1.37;75.11;101961.09;1605579;87;21034;-75
2020/12/16 04:28:59;;;;;;;12.80;8.08;;;;;;;1.38;75.07;101962.39;1625324;87;20955;-75
2020/12/16 04:31:28;;;;;;;11.43;8.15;;;;;;;1.37;75.05;101959.36;1604205;87;21207;-75
2020/12/16 04:33:56;;;;;;;10.38;7.65;;;;;;;1.39;75.02;101959.36;1625599;87;21545;-76
2020/12/16 04:36:28;;;;;;;15.00;9.58;;;;;;;1.40;75.09;101963.66;1625599;87;20998;-76
2020/12/16 04:38:56;;;;;;;11.38;8.68;;;;;;;1.37;75.18;101966.25;1625478;87;20964;-76
2020/12/16 04:41:25;;;;;;;11.45;8.98;;;;;;;1.34;75.25;101967.56;1625472;87;20992;-76
2020/12/16 04:43:55;;;;;;;15.15;8.98;;;;;;;1.32;75.31;101973.16;1624443;87;22535;-76
2020/12/16 04:46:25;;;;;;;11.15;8.15;;;;;;;1.31;75.41;101972.30;1625541;87;21054;-76
2020/12/16 04:48:53;;;;;;;11.45;8.35;;;;;;;1.36;75.38;101972.30;1625639;85;21073;-76
2020/12/16 04:51:24;;;;;;;11.63;8.25;;;;;;;1.36;75.48;101977.47;1625079;87;21467;-77
2020/12/16 04:53:54;;;;;;;11.08;8.38;;;;;;;1.36;75.51;101977.47;1625435;87;21024;-76
2020/12/16 04:56:24;;;;;;;13.13;9.65;;;;;;;1.38;75.63;101971.84;1625001;87;21026;-75
2020/12/16 05:02:08;;;;;;;16.20;9.80;;;;;;;1.45;75.67;101971.85;1813600;78;22672;-78
2020/12/16 05:04:38;;;;;;;13.20;9.23;;;;;;;1.38;75.60;101984.36;1755690;80;21022;-77
2020/12/16 05:07:11;;;;;;;13.72;9.25;;;;;;;1.33;75.66;101983.47;1754185;80;21308;-77
2020/12/16 05:09:47;;;;;;;14.47;9.90;;;;;;;1.31;75.74;101987.80;1756291;80;20946;-77
2020/12/16 05:12:17;;;;;;;16.20;11.70;;;;;;;1.31;75.68;101993.38;1754970;80;20990;-76
2020/12/16 05:14:45;;;;;;;16.80;11.15;;;;;;;1.27;75.76;101988.66;1781619;80;21576;-77
2020/12/16 05:17:13;;;;;;;14.75;9.93;;;;;;;1.28;75.64;101989.52;1781460;80;21029;-76
2020/12/16 05:19:45;;;;;;;13.45;8.88;;;;;;;1.27;75.62;102000.70;1755085;80;21466;-76
2020/12/16 05:22:18;;;;;;;15.45;10.53;;;;;;;1.21;75.71;102006.30;1754181;80;21364;-76
2020/12/16 05:24:50;;;;;;;15.00;10.40;;;;;;;1.14;75.97;102004.57;1755655;80;21456;-77
2020/12/16 05:27:31;;;;;;;16.25;11.12;;;;;;;1.09;76.06;102006.70;1755684;80;21017;-77
2020/12/16 05:30:03;;;;;;;15.93;10.82;;;;;;;1.07;76.03;102014.47;1781482;79;20962;-79
2020/12/16 05:32:36;;;;;;;14.50;10.23;;;;;;;1.08;76.02;102011.45;1782346;79;22485;-78
2020/12/16 05:35:35;;;;;;;15.63;9.95;;;;;;;1.08;75.93;102015.33;1781450;80;20970;-78
2020/12/16 05:38:09;;;;;;;13.70;9.05;;;;;;;1.07;76.01;102027.80;1754238;79;21053;-80
2020/12/16 05:40:39;;;;;;;11.15;7.95;;;;;;;1.03;75.89;102025.22;1754725;80;20962;-79
2020/12/16 05:43:09;;;;;;;10.40;7.33;;;;;;;1.03;75.66;102026.51;1754342;80;20993;-78
2020/12/16 05:45:39;;;;;;;8.05;6.25;;;;;;;1.05;75.58;102024.38;1756238;80;21344;-80
2020/12/16 05:48:10;;;;;;;7.85;6.40;;;;;;;1.02;75.34;102026.09;1750363;80;21139;-81
2020/12/16 05:50:59;;;;;;;8.58;6.90;;;;;;;0.99;75.22;102026.06;1755435;80;20938;-74
2020/12/16 05:53:29;;;;;;;8.50;6.80;;;;;;;0.97;75.34;102031.66;1755486;80;21041;-75
2020/12/16 05:56:02;;;;;;;7.70;5.42;;;;;;;1.00;75.19;102039.43;1750765;80;20978;-82
2020/12/16 05:58:32;;;;;;;5.05;4.53;;;;;;;1.03;75.02;102042.45;1750602;80;21731;-77
2020/12/16 06:01:04;;;;;;;6.58;5.00;;;;;;;1.08;74.82;102037.28;1748148;80;20922;-77
2020/12/16 06:03:38;;;;;;;5.72;4.92;;;;;;;1.06;74.59;102035.98;1745563;80;20923;-78
2020/12/16 06:06:09;;;;;;;5.05;4.42;;;;;;;1.08;74.43;102034.70;1745705;80;21602;-78
2020/12/16 06:08:41;;;;;;;4.45;3.37;;;;;;;1.10;74.40;102039.45;1745837;80;21091;-80
2020/12/16 06:11:12;;;;;;;6.90;5.22;;;;;;;1.14;74.20;102045.05;1745987;80;21068;-79
2020/12/16 06:13:47;;;;;;;5.30;4.08;;;;;;;1.17;74.13;102045.91;1778738;79;20970;-79
2020/12/16 06:16:14;;;;;;;;;;;;;;;1.16;74.04;102046.78;1754881;80;21589;-82
2020/12/16 06:18:47;;;;;;;5.78;4.70;;;;;;;1.14;74.08;102059.27;1752086;80;20434;-80
2020/12/16 06:21:17;;;;;;;5.55;4.80;;;;;;;1.12;74.05;102054.08;1744589;80;20962;-79
2020/12/16 06:23:45;;;;;;;3.40;3.10;;;;;;;1.15;73.89;102055.37;1745288;80;21156;-79
2020/12/16 06:26:16;;;;;;;4.45;3.45;;;;;;;1.15;73.79;102059.69;1744766;80;21069;-81
2020/12/16 06:28:45;;;;;;;4.25;3.85;;;;;;;1.13;73.92;102055.80;1712852;80;20983;-80
2020/12/16 06:31:29;;;;;;;5.20;3.77;;;;;;;1.14;74.06;102057.97;1638853;86;20984;-80
2020/12/16 06:34:05;;;;;;;5.15;4.03;;;;;;;1.13;74.03;102059.67;1650976;86;20999;-79
2020/12/16 06:36:40;;;;;;;4.28;3.40;;;;;;;1.16;74.00;102060.98;1650696;86;22365;-80
2020/12/16 06:39:16;;;;;;;3.08;2.85;;;;;;;1.18;73.99;102063.59;1638935;86;21091;-80
2020/12/16 06:41:56;;;;;;;4.03;3.62;;;;;;;1.15;73.95;102060.54;1650992;85;20979;-81
2020/12/16 06:44:25;;;;;;;4.08;3.58;;;;;;;1.10;74.03;102057.53;1638669;86;21075;-79
2020/12/16 06:46:54;;;;;;;7.50;3.72;;;;;;;1.12;74.13;102058.40;1650872;86;20974;-78
2020/12/16 06:49:29;;;;;;;6.45;3.83;;;;;;;1.17;74.05;102063.13;1638531;86;21224;-77
2020/12/16 06:52:05;;;;;;;3.95;3.50;;;;;;;1.18;74.18;102056.69;1650621;86;21102;-79
2020/12/16 06:54:44;;;;;;;6.00;4.28;;;;;;;1.22;73.94;102058.42;1638493;86;20976;-80
2020/12/16 06:57:16;;;;;;;4.55;3.95;;;;;;;1.20;74.00;102060.14;1650848;86;21019;-78
2020/12/16 06:59:50;;;;;;;4.85;3.75;;;;;;;1.19;74.14;102062.71;1650324;86;21409;-77
2020/12/16 07:02:31;;;;;;;3.87;3.58;;;;;;;1.19;74.24;102066.15;1673622;85;21018;-79
2020/12/16 07:05:01;;;;;;;3.95;3.62;;;;;;;1.19;73.94;102062.71;1652037;85;20991;-82
2020/12/16 07:07:48;;;;;;;4.17;3.30;;;;;;;1.19;73.88;102067.87;1640180;84;21047;-80
2020/12/16 07:10:41;;;;;;;3.72;3.37;;;;;;;1.20;74.02;102070.48;1651121;86;21122;-80
2020/12/16 07:13:30;;;;;;;4.35;3.65;;;;;;;1.19;74.17;102063.56;1638952;86;21051;-79
2020/12/16 07:16:09;;;;;;;4.25;3.85;;;;;;;1.22;74.25;102067.47;1651180;86;21197;-81
2020/12/16 07:18:49;;;;;;;3.60;3.17;;;;;;;1.29;74.19;102063.58;1650999;86;21767;-81
2020/12/16 07:21:23;;;;;;;3.70;3.17;;;;;;;1.38;73.75;102055.84;1638523;86;21067;-80
2020/12/16 07:24:15;;;;;;;2.67;2.47;;;;;;;1.43;73.41;102057.58;1650936;86;21062;-83
2020/12/16 07:26:53;;;;;;;4.08;3.67;;;;;;;1.44;73.31;102058.00;1650751;86;20955;-80
2020/12/16 07:29:32;;;;;;;3.67;3.25;;;;;;;1.47;73.38;102057.57;1642937;86;21451;-80
2020/12/16 07:32:14;;;;;;;3.52;3.12;;;;;;;1.49;73.11;102055.45;1652363;82;21051;-79
2020/12/16 07:34:50;;;;;;;5.92;3.17;;;;;;;1.51;73.07;102057.57;1712279;82;21085;-78
2020/12/16 07:37:28;;;;;;;3.85;3.35;;;;;;;1.55;73.21;102056.72;1712164;82;21025;-79
2020/12/16 07:40:10;;;;;;;4.17;3.72;;;;;;;1.56;73.32;102064.07;1712307;82;20950;-79
2020/12/16 07:42:34;;;;;;;6.25;4.42;;;;;;;1.58;73.26;102064.50;1712208;82;20966;-79
2020/12/16 07:45:07;;;;;;;4.87;4.20;;;;;;;1.65;73.20;102065.36;1712440;82;21009;-80
2020/12/16 07:47:35;;;;;;;4.87;4.08;;;;;;;1.70;73.12;102065.36;1711942;82;20935;-80
2020/12/16 07:50:11;;;;;;;5.80;4.22;;;;;;;1.76;72.67;102069.25;1712194;82;21464;-80
2020/12/16 07:52:39;;;;;;;5.70;4.62;;;;;;;1.77;72.70;102065.78;1712380;82;21539;-78
2020/12/16 07:55:07;;;;;;;4.83;4.35;;;;;;;1.78;72.59;102067.09;1712293;82;22325;-79
2020/12/16 07:57:37;;;;;;;5.60;4.50;;;;;;;1.81;72.64;102064.48;1737579;82;20931;-78
2020/12/16 08:00:06;;;;;;;5.85;4.75;;;;;;;1.86;72.70;102065.77;1712344;82;21022;-80
2020/12/16 08:02:44;;;;;;;6.72;5.05;;;;;;;1.91;72.58;102075.67;1712283;82;20998;-80
2020/12/16 08:05:14;;;;;;;7.40;4.85;;;;;;;1.97;72.23;102069.66;1712411;82;20998;-79
2020/12/16 08:07:42;;;;;;;5.22;4.47;;;;;;;2.01;71.89;102069.64;1692930;83;21013;-81
2020/12/16 08:10:11;;;;;;;4.95;3.95;;;;;;;2.05;73.13;102069.22;1711912;82;20998;-80
2020/12/16 08:12:41;;;;;;;4.80;3.72;;;;;;;2.14;72.79;102068.35;1712503;82;21065;-80
2020/12/16 08:15:14;;;;;;;4.80;4.30;;;;;;;2.21;72.17;102072.64;1712397;82;20972;-78
2020/12/16 08:17:45;;;;;;;4.70;3.92;;;;;;;2.22;71.57;102065.29;1712292;82;20923;-79
2020/12/16 08:20:16;;;;;;;7.70;4.53;;;;;;;2.18;71.07;102071.33;1712265;82;21506;-79
2020/12/16 08:22:47;;;;;;;5.05;4.55;;;;;;;2.12;70.79;102072.22;1712242;82;20958;-78
2020/12/16 08:25:17;;;;;;;6.15;4.72;;;;;;;1.99;70.80;102070.08;1737613;82;21772;-78
2020/12/16 08:27:48;;;;;;;4.55;4.05;;;;;;;1.97;71.26;102068.36;1712451;82;20938;-75
2020/12/16 08:30:19;;;;;;;5.80;4.42;;;;;;;1.98;71.29;102067.48;1693153;83;20979;-78
2020/12/16 08:33:15;;;;;;;6.70;5.28;;;;;;;1.96;71.06;102070.53;1710771;82;21987;-77
2020/12/16 08:36:08;;;;;;;5.97;5.37;;;;;;;1.94;71.09;102070.52;1656496;81;21706;-79
2020/12/16 08:38:40;;;;;;;4.45;4.05;;;;;;;1.94;71.02;102072.25;1626114;86;21052;-76
2020/12/16 08:41:13;;;;;;;6.15;4.95;;;;;;;1.90;71.03;102068.80;1646965;85;21087;-79
2020/12/16 08:43:43;;;;;;;7.12;4.00;;;;;;;1.92;71.12;102062.34;1646487;85;20968;-79
2020/12/16 08:46:27;;;;;;;5.70;4.90;;;;;;;1.92;71.33;102063.63;1645956;86;21912;-80
2020/12/16 08:49:03;;;;;;;7.70;5.42;;;;;;;1.88;71.57;102060.61;1646647;86;21026;-80
2020/12/16 08:51:48;;;;;;;7.42;6.22;;;;;;;1.83;71.82;102061.47;1647088;86;21043;-80
2020/12/16 08:54:26;;;;;;;8.58;6.47;;;;;;;1.79;72.06;102064.91;1646863;84;21059;-82
2020/12/16 08:56:57;;;;;;;7.25;6.17;;;;;;;1.83;72.16;102067.08;1646705;85;21087;-84
2020/12/16 08:59:27;;;;;;;8.10;5.60;;;;;;;1.80;72.25;102066.66;1646777;86;21547;-82
2020/12/16 09:02:08;;;;;;;7.42;5.85;;;;;;;1.80;72.40;102065.77;1646577;85;21024;-82
2020/12/16 09:04:38;;;;;;;7.45;5.72;;;;;;;1.81;72.29;102066.22;1663361;85;21061;-85
2020/12/16 09:07:13;;;;;;;6.22;5.17;;;;;;;1.80;72.33;102074.41;1646782;86;21613;-82
2020/12/16 09:09:49;;;;;;;6.80;5.40;;;;;;;1.78;72.36;102071.38;1646745;86;20952;-82
2020/12/16 09:12:19;;;;;;;6.35;4.85;;;;;;;1.74;72.45;102080.02;1663341;86;21422;-82
2020/12/16 09:15:03;;;;;;;9.00;7.03;;;;;;;1.74;72.40;102083.46;1647191;86;21059;-84
2020/12/16 09:17:33;;;;;;;8.73;5.25;;;;;;;1.76;72.37;102077.86;1646787;86;20957;-85
2020/12/16 09:20:01;;;;;;;7.37;5.90;;;;;;;1.78;72.62;102086.89;1646742;86;21055;-84
2020/12/16 09:22:30;;;;;;;6.28;4.75;;;;;;;1.78;72.61;102086.89;1646966;86;20932;-83
2020/12/16 09:24:59;;;;;;;8.30;6.17;;;;;;;1.82;72.52;102097.67;1664101;84;20933;-83
2020/12/16 09:27:28;;;;;;;6.97;5.75;;;;;;;1.83;72.67;102095.53;1646793;86;21434;-80
2020/12/16 09:29:57;;;;;;;7.87;5.65;;;;;;;1.85;72.89;102095.95;1646873;86;21494;-80
2020/12/16 09:32:26;;;;;;;8.63;5.70;;;;;;;1.86;72.86;102091.20;1646709;86;21050;-82
2020/12/16 09:34:55;;;;;;;6.30;5.70;;;;;;;1.88;72.77;102090.36;1649768;85;20987;-84
2020/12/16 09:37:25;;;;;;;7.25;5.60;;;;;;;1.90;72.79;102084.75;1658323;85;21724;-81
2020/12/16 09:40:07;;;;;;;7.40;6.60;;;;;;;1.95;72.76;102090.78;1670063;82;20979;-74
2020/12/16 09:42:35;;;;;;;5.97;5.05;;;;;;;2.03;72.60;102082.15;1707879;82;20977;-74
2020/12/16 09:45:12;;;;;;;6.50;5.75;;;;;;;2.08;72.57;102077.82;1708243;82;20967;-73
2020/12/16 09:47:48;;;;;;;7.50;5.65;;;;;;;2.10;72.59;102077.83;1726608;81;21408;-74
2020/12/16 09:50:19;;;;;;;6.20;4.92;;;;;;;2.10;72.32;102073.09;1726497;81;22040;-73
2020/12/16 09:52:47;;;;;;;5.70;4.58;;;;;;;2.07;72.28;102076.11;1726334;81;21053;-72
2020/12/16 09:55:20;;;;;;;8.38;5.40;;;;;;;2.06;72.16;102081.28;1726549;81;20987;-76
2020/12/16 09:58:07;;;;;;;7.95;5.45;;;;;;;2.06;72.38;102076.10;1726917;81;21487;-73
2020/12/16 10:00:36;;;;;;;6.40;4.72;;;;;;;2.08;72.41;102070.50;1726907;81;20962;-73
2020/12/16 10:03:10;;;;;;;5.33;4.35;;;;;;;2.08;72.57;102077.82;1726475;81;21112;-73
2020/12/16 10:05:39;;;;;;;4.67;4.10;;;;;;;2.02;72.73;102076.56;1726504;81;20990;-74
2020/12/16 10:08:14;;;;;;;5.28;4.28;;;;;;;2.02;72.89;102075.67;1726153;81;20982;-72
2020/12/16 10:10:44;;;;;;;4.83;4.33;;;;;;;2.01;72.93;102068.35;1726858;81;20958;-72
2020/12/16 10:13:12;;;;;;;5.67;4.55;;;;;;;1.98;73.13;102072.25;1726766;81;20958;-74
2020/12/16 10:15:40;;;;;;;6.95;4.85;;;;;;;2.04;73.25;102069.63;1726471;81;21033;-74
2020/12/16 10:18:08;;;;;;;5.47;4.50;;;;;;;2.08;73.26;102070.06;1726498;81;21057;-75
2020/12/16 10:20:36;;;;;;;6.28;4.87;;;;;;;2.09;73.30;102076.12;1726624;81;21515;-74
2020/12/16 10:23:06;;;;;;;6.15;4.67;;;;;;;2.09;73.36;102073.53;1726553;81;21385;-74
2020/12/16 10:25:34;;;;;;;6.55;4.78;;;;;;;2.12;73.28;102073.95;1726570;81;21391;-72
2020/12/16 10:28:02;;;;;;;8.55;5.25;;;;;;;2.14;73.22;102069.64;1726639;81;21975;-74
2020/12/16 10:30:30;;;;;;;6.05;4.95;;;;;;;2.16;73.03;102072.66;1726506;81;21112;-76
2020/12/16 10:32:59;;;;;;;6.80;5.12;;;;;;;2.19;72.97;102067.90;1726987;81;21123;-73
2020/12/16 10:35:29;;;;;;;4.35;3.83;;;;;;;2.23;73.31;102075.66;1727100;81;21583;-75
2020/12/16 10:38:03;;;;;;;5.95;4.97;;;;;;;2.26;73.57;102063.98;1728952;81;20959;-73
2020/12/16 10:40:34;;;;;;;6.83;4.97;;;;;;;2.32;73.28;102067.45;1728891;81;21352;-73
2020/12/16 10:43:03;;;;;;;4.15;3.75;;;;;;;2.35;72.95;102068.72;1701797;81;20982;-75
2020/12/16 10:45:38;;;;;;;5.97;4.22;;;;;;;2.39;72.60;102063.97;1629781;86;20947;-77
2020/12/16 10:48:12;;;;;;;5.60;3.47;;;;;;;2.39;72.25;102069.15;1628795;86;20959;-75
2020/12/16 10:50:42;;;;;;;4.47;3.30;;;;;;;2.37;71.68;102061.81;1630046;86;21011;-75
2020/12/16 10:53:10;;;;;;;4.53;3.20;;;;;;;2.31;71.28;102067.00;1655000;86;21009;-75
2020/12/16 10:55:39;;;;;;;3.70;3.40;;;;;;;2.20;71.54;102063.14;1654971;85;21014;-73
2020/12/16 10:58:13;;;;;;;4.30;3.52;;;;;;;2.13;71.56;102058.41;1655325;84;20943;-75
2020/12/16 11:00:40;;;;;;;5.75;3.10;;;;;;;2.08;71.68;102057.56;1632339;85;21003;-75
2020/12/16 11:03:08;;;;;;;6.50;4.55;;;;;;;2.05;71.80;102065.34;1652019;86;20990;-76
2020/12/16 11:05:37;;;;;;;5.12;3.75;;;;;;;2.04;71.76;102064.45;1651981;86;21049;-76
2020/12/16 11:08:07;;;;;;;4.40;3.70;;;;;;;2.05;71.82;102056.28;1651707;86;21639;-77
2020/12/16 11:10:35;;;;;;;3.58;3.27;;;;;;;2.04;71.87;102056.69;1651461;86;21022;-76
2020/12/16 11:13:04;;;;;;;4.33;3.20;;;;;;;1.99;71.97;102056.28;1652073;85;20994;-76
2020/12/16 11:15:39;;;;;;;5.55;3.80;;;;;;;1.97;71.65;102063.19;1652010;86;21145;-77
2020/12/16 11:18:07;;;;;;;6.85;4.22;;;;;;;1.93;71.58;102070.52;1651709;86;21182;-74
2020/12/16 11:20:37;;;;;;;7.10;4.92;;;;;;;1.88;71.65;102069.66;1657938;86;21018;-76
2020/12/16 11:23:04;;;;;;;6.12;4.60;;;;;;;1.85;71.16;102072.68;1651387;85;21183;-74
2020/12/16 11:25:34;;;;;;;6.00;4.67;;;;;;;1.82;71.12;102063.64;1629091;86;21003;-75
2020/12/16 11:28:02;;;;;;;6.15;4.47;;;;;;;1.75;71.42;102061.89;1657901;86;20975;-74
2020/12/16 11:30:30;;;;;;;5.95;4.55;;;;;;;1.68;71.74;102074.40;1626587;86;20992;-74
2020/12/16 11:32:58;;;;;;;6.45;4.62;;;;;;;1.67;72.03;102067.52;1651736;86;21030;-73
2020/12/16 11:35:27;;;;;;;6.20;4.85;;;;;;;1.68;71.96;102070.52;1626619;86;21041;-73
2020/12/16 11:37:55;;;;;;;5.35;4.12;;;;;;;1.70;71.91;102073.12;1626610;86;21070;-71
2020/12/16 11:40:24;;;;;;;5.90;4.47;;;;;;;1.66;71.99;102072.24;1626803;86;20987;-72
2020/12/16 11:42:52;;;;;;;7.17;5.47;;;;;;;1.68;72.09;102082.59;1651649;86;20998;-74
2020/12/16 11:45:20;;;;;;;6.42;4.97;;;;;;;1.65;72.04;102083.02;1653863;86;20979;-73
2020/12/16 11:47:48;;;;;;;6.50;5.47;;;;;;;1.67;71.81;102084.33;1663870;81;21124;-78
2020/12/16 11:50:19;;;;;;;8.83;5.75;;;;;;;1.68;71.28;102081.30;1685764;84;21037;-75